createdAt,value
2022-08-22T00:01:10.832Z,10.95
2022-08-22T00:02:58.169Z,30.88
2022-08-22T00:03:02.619Z,17.03
2022-08-22T00:04:13.996Z,10.87
2022-08-22T00:06:50.914Z,10.87
2022-08-22T00:09:25.686Z,10.88
2022-08-22T00:12:17.389Z,10.94
2022-08-22T00:15:05.053Z,10.88
2022-08-22T00:17:37.664Z,10.89
2022-08-22T00:20:33.193Z,10.87
2022-08-22T00:23:29.050Z,10.84
2022-08-22T00:26:17.360Z,10.78
2022-08-22T00:29:12.903Z,10.69
2022-08-22T00:32:05.408Z,10.64
2022-08-22T00:34:56.184Z,10.64
2022-08-22T00:37:43.237Z,10.60
2022-08-22T00:40:42.277Z,10.56
2022-08-22T00:43:12.185Z,10.58
2022-08-22T00:45:59.945Z,10.57
2022-08-22T00:49:00.416Z,10.60
2022-08-22T00:52:01.520Z,10.53
2022-08-22T00:54:42.898Z,10.51
2022-08-22T00:57:53.231Z,10.56
2022-08-22T01:00:27.699Z,10.53
2022-08-22T01:03:28.430Z,10.50
2022-08-22T01:06:16.267Z,10.48
2022-08-22T01:09:08.863Z,10.44
2022-08-22T01:12:02.646Z,10.44
2022-08-22T01:14:46.340Z,10.37
2022-08-22T01:17:16.264Z,10.37
2022-08-22T01:20:03.657Z,10.30
2022-08-22T01:23:04.673Z,10.20
2022-08-22T01:26:10.015Z,10.06
2022-08-22T01:28:50.617Z,10.02
2022-08-22T01:31:39.038Z,9.99
2022-08-22T01:34:24.031Z,9.98
2022-08-22T01:37:17.709Z,9.93
2022-08-22T01:40:24.686Z,9.90
2022-08-22T01:43:59.116Z,9.89
2022-08-22T01:46:48.851Z,9.92
2022-08-22T01:49:28.256Z,9.92
2022-08-22T01:52:06.987Z,9.86
2022-08-22T01:54:44.064Z,9.92
2022-08-22T01:57:14.979Z,9.92
2022-08-22T01:59:51.417Z,9.93
2022-08-22T02:02:39.084Z,9.83
2022-08-22T02:05:23.833Z,9.71
2022-08-22T02:08:14.887Z,9.68
2022-08-22T02:11:03.248Z,9.69
2022-08-22T02:13:57.819Z,9.63
2022-08-22T02:16:55.087Z,9.58
2022-08-22T02:19:30.934Z,9.57
2022-08-22T02:22:21.651Z,9.61
2022-08-22T02:25:10.927Z,9.58
2022-08-22T02:27:53.256Z,9.54
2022-08-22T02:30:43.999Z,9.51
2022-08-22T02:33:48.850Z,9.49
2022-08-22T02:36:47.854Z,9.57
2022-08-22T02:39:41.954Z,9.48
2022-08-22T02:42:25.088Z,9.49
2022-08-22T02:45:13.874Z,9.42
2022-08-22T02:47:57.108Z,9.30
2022-08-22T02:50:30.879Z,9.27
2022-08-22T02:53:37.080Z,9.20
2022-08-22T02:56:33.070Z,9.11
2022-08-22T02:59:25.647Z,9.07
2022-08-22T03:01:57.285Z,8.99
2022-08-22T03:04:33.055Z,8.96
2022-08-22T03:07:22.589Z,8.83
2022-08-22T03:10:24.478Z,8.84
2022-08-22T03:13:20.044Z,8.80
2022-08-22T03:15:58.356Z,8.80
2022-08-22T03:19:01.818Z,8.83
2022-08-22T03:21:47.093Z,8.84
2022-08-22T03:24:17.153Z,8.82
2022-08-22T03:26:52.611Z,8.82
2022-08-22T03:29:32.164Z,8.79
2022-08-22T03:32:22.505Z,8.72
2022-08-22T03:35:11.937Z,8.72
2022-08-22T03:37:45.475Z,8.76
2022-08-22T03:40:22.183Z,8.75
2022-08-22T03:42:54.717Z,8.77
2022-08-22T03:45:42.782Z,8.77
2022-08-22T03:48:44.345Z,8.75
2022-08-22T03:51:43.629Z,8.66
2022-08-22T03:54:29.254Z,8.61
2022-08-22T03:57:37.227Z,8.61
2022-08-22T04:00:38.774Z,8.62
2022-08-22T04:03:29.014Z,8.58
2022-08-22T04:06:12.955Z,8.53
2022-08-22T04:08:44.704Z,8.44
2022-08-22T04:11:37.812Z,8.46
2022-08-22T04:14:45.871Z,8.38
2022-08-22T04:17:43.012Z,8.34
2022-08-22T04:20:17.041Z,8.37
2022-08-22T04:23:23.755Z,8.35
2022-08-22T04:26:12.070Z,8.32
2022-08-22T04:28:54.738Z,8.31
2022-08-22T04:31:31.176Z,8.31
2022-08-22T04:34:30.955Z,8.40
2022-08-22T04:37:17.254Z,8.31
2022-08-22T04:39:54.989Z,8.27
2022-08-22T04:42:40.692Z,8.24
2022-08-22T04:45:35.240Z,8.22
2022-08-22T04:48:11.588Z,8.17
2022-08-22T04:50:49.367Z,8.12
2022-08-22T04:53:24.553Z,8.04
2022-08-22T04:56:34.140Z,8.07
2022-08-22T04:59:15.219Z,8.05
2022-08-22T05:01:48.978Z,7.98
2022-08-22T05:04:27.290Z,7.98
2022-08-22T05:07:16.921Z,7.93
2022-08-22T05:09:57.524Z,7.98
2022-08-22T05:12:35.326Z,7.98
2022-08-22T05:15:19.019Z,7.98
2022-08-22T05:17:56.440Z,7.94
2022-08-22T05:20:29.083Z,7.95
2022-08-22T05:23:05.934Z,7.94
2022-08-22T05:25:39.395Z,7.94
2022-08-22T05:28:32.414Z,7.93
2022-08-22T05:31:07.224Z,7.93
2022-08-22T05:33:50.117Z,7.90
2022-08-22T05:36:29.344Z,7.95
2022-08-22T05:39:08.217Z,7.93
2022-08-22T05:41:40.085Z,7.94
2022-08-22T05:44:26.785Z,7.95
2022-08-22T05:47:29.909Z,7.94
2022-08-22T05:50:06.614Z,7.95
2022-08-22T05:53:13.427Z,7.87
2022-08-22T05:55:58.138Z,7.90
2022-08-22T05:58:52.296Z,7.94
2022-08-22T06:01:37.817Z,7.98
2022-08-22T06:04:41.365Z,7.95
2022-08-22T06:07:35.634Z,7.90
2022-08-22T06:10:32.991Z,7.91
2022-08-22T06:13:12.973Z,7.86
2022-08-22T06:15:53.857Z,7.80
2022-08-22T06:18:28.342Z,7.80
2022-08-22T06:21:04.001Z,7.76
2022-08-22T06:23:57.604Z,7.76
2022-08-22T06:26:33.031Z,7.70
2022-08-22T06:29:05.433Z,7.65
2022-08-22T06:31:44.457Z,7.49
2022-08-22T06:34:25.655Z,7.51
2022-08-22T06:36:59.099Z,7.53
2022-08-22T06:39:42.391Z,7.46
2022-08-22T06:42:31.885Z,7.51
2022-08-22T06:45:08.512Z,7.45
2022-08-22T06:47:43.720Z,7.58
2022-08-22T06:50:32.084Z,7.60
2022-08-22T06:53:19.593Z,7.59
2022-08-22T06:56:04.441Z,7.62
2022-08-22T06:58:50.272Z,7.63
2022-08-22T07:01:24.157Z,7.62
2022-08-22T07:04:04.480Z,7.55
2022-08-22T07:06:38.608Z,7.49
2022-08-22T07:09:18.200Z,7.43
2022-08-22T07:11:50.335Z,7.32
2022-08-22T07:14:46.093Z,7.28
2022-08-22T07:17:37.853Z,7.25
2022-08-22T07:20:33.084Z,7.25
2022-08-22T07:23:14.551Z,7.23
2022-08-22T07:26:13.273Z,7.26
2022-08-22T07:29:10.722Z,7.18
2022-08-22T07:31:50.477Z,7.21
2022-08-22T07:34:41.729Z,7.23
2022-08-22T07:37:28.134Z,7.29
2022-08-22T07:40:12.215Z,7.33
2022-08-22T07:42:53.990Z,7.29
2022-08-22T07:45:54.925Z,7.35
2022-08-22T07:48:59.273Z,7.48
2022-08-22T07:51:41.916Z,7.46
2022-08-22T07:54:15.925Z,7.53
2022-08-22T07:56:56.247Z,7.63
2022-08-22T07:59:29.325Z,7.79
2022-08-22T08:02:01.527Z,8.00
2022-08-22T08:04:39.510Z,8.20
2022-08-22T08:07:13.581Z,8.38
2022-08-22T08:09:51.582Z,8.66
2022-08-22T08:12:27.830Z,8.96
2022-08-22T08:14:58.772Z,9.32
2022-08-22T08:17:32.399Z,9.61
2022-08-22T08:20:10.617Z,9.71
2022-08-22T08:22:44.438Z,9.81
2022-08-22T08:25:19.229Z,9.81
2022-08-22T08:28:09.848Z,9.16
2022-08-22T08:30:58.932Z,8.77
2022-08-22T08:33:33.366Z,8.77
2022-08-22T08:36:12.125Z,8.80
2022-08-22T08:38:50.926Z,8.89
2022-08-22T08:41:45.264Z,9.01
2022-08-22T08:44:41.096Z,9.06
2022-08-22T08:47:41.808Z,9.00
2022-08-22T08:51:02.183Z,8.87
2022-08-22T08:54:04.522Z,8.82
2022-08-22T08:56:40.256Z,8.75
2022-08-22T08:59:35.870Z,8.80
2022-08-22T09:02:48.749Z,8.76
2022-08-22T09:05:46.708Z,8.80
2022-08-22T09:08:33.175Z,8.89
2022-08-22T09:11:48.458Z,8.83
2022-08-22T09:14:44.329Z,8.87
2022-08-22T09:17:48.001Z,8.89
2022-08-22T09:20:49.632Z,8.94
2022-08-22T09:23:44.323Z,9.07
2022-08-22T09:26:22.850Z,9.10
2022-08-22T09:29:01.642Z,9.17
2022-08-22T09:31:52.148Z,9.30
2022-08-22T09:35:08.528Z,9.41
2022-08-22T09:37:47.591Z,9.40
2022-08-22T09:40:30.790Z,9.35
2022-08-22T09:43:21.243Z,9.44
2022-08-22T09:46:08.448Z,9.47
2022-08-22T09:49:05.637Z,9.42
2022-08-22T09:52:02.652Z,9.44
2022-08-22T09:54:49.382Z,9.51
2022-08-22T09:57:22.702Z,9.57
2022-08-22T10:00:11.584Z,9.61
2022-08-22T10:02:54.059Z,9.65
2022-08-22T10:05:47.660Z,9.72
2022-08-22T10:08:32.286Z,9.79
2022-08-22T10:11:43.338Z,9.83
2022-08-22T10:14:33.348Z,9.90
2022-08-22T10:17:15.769Z,9.88
2022-08-22T10:20:15.080Z,10.02
2022-08-22T10:23:21.248Z,10.03
2022-08-22T10:25:59.424Z,10.00
2022-08-22T10:28:48.088Z,10.08
2022-08-22T10:31:30.148Z,10.10
2022-08-22T10:34:08.340Z,10.21
2022-08-22T10:37:01.383Z,10.30
2022-08-22T10:39:44.891Z,10.36
2022-08-22T10:42:27.966Z,10.48
2022-08-22T10:45:16.536Z,10.71
2022-08-22T10:48:00.723Z,10.82
2022-08-22T10:50:40.515Z,10.98
2022-08-22T10:53:34.962Z,11.11
2022-08-22T10:56:14.481Z,11.27
2022-08-22T10:59:02.491Z,11.46
2022-08-22T11:01:42.377Z,11.37
2022-08-22T11:04:42.986Z,11.35
2022-08-22T11:07:48.768Z,11.49
2022-08-22T11:10:56.722Z,11.54
2022-08-22T11:13:32.234Z,11.33
2022-08-22T11:16:20.908Z,11.15
2022-08-22T11:19:44.786Z,11.16
2022-08-22T11:22:23.197Z,11.12
2022-08-22T11:25:35.837Z,11.08
2022-08-22T11:28:25.480Z,11.05
2022-08-22T11:31:52.422Z,11.14
2022-08-22T11:34:59.900Z,11.06
2022-08-22T11:38:12.294Z,11.12
2022-08-22T11:41:01.712Z,11.18
2022-08-22T11:43:44.508Z,11.30
2022-08-22T11:46:31.194Z,11.39
2022-08-22T11:49:19.373Z,11.67
2022-08-22T11:52:15.507Z,11.90
2022-08-22T11:55:08.297Z,11.83
2022-08-22T11:57:45.058Z,11.87
2022-08-22T12:00:33.546Z,12.11
2022-08-22T12:03:29.539Z,12.38
2022-08-22T12:06:15.258Z,12.60
2022-08-22T12:08:52.078Z,12.75
2022-08-22T12:11:24.996Z,13.37
2022-08-22T12:14:06.297Z,13.87
2022-08-22T12:16:48.224Z,14.64
2022-08-22T12:19:39.673Z,15.50
2022-08-22T12:22:49.896Z,16.41
2022-08-22T12:25:35.105Z,17.75
2022-08-22T12:28:16.928Z,19.33
2022-08-22T12:31:06.398Z,20.12
2022-08-22T12:33:50.665Z,18.84
2022-08-22T12:36:51.906Z,16.91
2022-08-22T12:39:49.408Z,17.73
2022-08-22T12:42:27.021Z,18.95
2022-08-22T12:45:20.410Z,17.10
2022-08-22T12:48:01.566Z,16.91
2022-08-22T12:51:17.257Z,17.36
2022-08-22T12:54:27.590Z,17.62
2022-08-22T12:56:59.995Z,17.30
2022-08-22T12:59:40.579Z,16.60
2022-08-22T13:02:21.810Z,15.78
2022-08-22T13:05:22.089Z,15.94
2022-08-22T13:08:02.362Z,16.12
2022-08-22T13:10:53.590Z,16.02
2022-08-22T13:13:38.869Z,16.04
2022-08-22T13:16:16.703Z,15.98
2022-08-22T13:18:59.101Z,15.98
2022-08-22T13:21:34.864Z,15.56
2022-08-22T13:24:22.693Z,15.74
2022-08-22T13:27:16.381Z,16.08
2022-08-22T13:29:52.997Z,18.29
2022-08-22T13:32:30.045Z,18.76
2022-08-22T13:35:03.494Z,18.55
2022-08-22T13:37:39.568Z,19.22
2022-08-22T13:40:15.098Z,19.63
2022-08-22T13:42:54.241Z,19.79
2022-08-22T13:45:28.373Z,19.49
2022-08-22T13:48:03.987Z,20.45
2022-08-22T13:51:05.245Z,21.32
2022-08-22T13:54:01.848Z,21.89
2022-08-22T13:56:44.044Z,22.14
2022-08-22T13:59:50.130Z,21.04
2022-08-22T14:02:35.023Z,21.39
2022-08-22T14:05:12.654Z,22.48
2022-08-22T14:08:25.811Z,22.62
2022-08-22T14:11:14.800Z,21.18
2022-08-22T14:13:50.680Z,20.80
2022-08-22T14:16:24.400Z,22.00
2022-08-22T14:19:00.176Z,22.79
2022-08-22T14:21:54.609Z,21.92
2022-08-22T14:24:47.263Z,22.50
2022-08-22T14:27:36.960Z,22.75
2022-08-22T14:30:20.595Z,22.17
2022-08-22T14:33:29.051Z,21.54
2022-08-22T14:36:05.899Z,21.92
2022-08-22T14:38:51.828Z,22.82
2022-08-22T14:41:56.573Z,22.48
2022-08-22T14:45:10.314Z,22.94
2022-08-22T14:47:55.141Z,22.47
2022-08-22T14:50:42.358Z,21.63
2022-08-22T14:53:27.864Z,22.23
2022-08-22T14:56:19.250Z,22.64
2022-08-22T14:58:59.366Z,22.54
2022-08-22T15:01:33.832Z,21.46
2022-08-22T15:04:19.290Z,20.81
2022-08-22T15:07:00.113Z,21.00
2022-08-22T15:09:41.909Z,22.40
2022-08-22T15:12:29.239Z,22.78
2022-08-22T15:15:02.855Z,21.97
2022-08-22T15:17:44.366Z,22.17
2022-08-22T15:20:28.193Z,22.47
2022-08-22T15:23:10.062Z,22.41
2022-08-22T15:25:47.077Z,22.78
2022-08-22T15:28:21.422Z,23.09
2022-08-22T15:31:03.556Z,22.85
2022-08-22T15:33:43.351Z,22.91
2022-08-22T15:36:19.000Z,23.09
2022-08-22T15:38:52.772Z,23.42
2022-08-22T15:41:36.243Z,22.99
2022-08-22T15:44:14.970Z,23.08
2022-08-22T15:47:34.966Z,22.99
2022-08-22T15:50:15.401Z,22.07
2022-08-22T15:53:12.778Z,22.00
2022-08-22T15:56:15.401Z,21.58
2022-08-22T15:58:49.808Z,22.44
2022-08-22T16:01:20.615Z,23.02
2022-08-22T16:04:01.779Z,23.23
2022-08-22T16:06:54.377Z,23.53
2022-08-22T16:09:40.728Z,23.40
2022-08-22T16:12:32.320Z,23.93
2022-08-22T16:15:06.757Z,23.87
2022-08-22T16:17:44.180Z,23.91
2022-08-22T16:20:19.713Z,24.00
2022-08-22T16:22:59.483Z,23.24
2022-08-22T16:25:48.689Z,22.75
2022-08-22T16:28:57.430Z,23.24
2022-08-22T16:31:44.110Z,23.74
2022-08-22T16:34:27.057Z,24.12
2022-08-22T16:37:15.874Z,23.96
2022-08-22T16:40:14.446Z,23.97
2022-08-22T16:42:50.603Z,23.50
2022-08-22T16:45:26.616Z,23.73
2022-08-22T16:48:00.460Z,22.96
2022-08-22T16:50:36.977Z,22.43
2022-08-22T16:53:31.256Z,23.42
2022-08-22T16:56:18.520Z,24.57
2022-08-22T16:59:09.939Z,24.94
2022-08-22T17:02:09.494Z,24.63
2022-08-22T17:05:11.539Z,24.65
2022-08-22T17:08:05.325Z,26.19
2022-08-22T17:11:00.025Z,26.54
2022-08-22T17:13:45.386Z,25.88
2022-08-22T17:16:57.187Z,26.06
2022-08-22T17:20:04.600Z,26.17
2022-08-22T17:22:47.667Z,24.72
2022-08-22T17:25:49.811Z,22.82
2022-08-22T17:28:56.748Z,24.83
2022-08-22T17:31:44.833Z,25.46
2022-08-22T17:34:14.208Z,26.33
2022-08-22T17:37:09.447Z,26.31
2022-08-22T17:39:55.909Z,26.48
2022-08-22T17:42:44.337Z,25.34
2022-08-22T17:45:52.255Z,24.79
2022-08-22T17:48:43.291Z,27.28
2022-08-22T17:51:33.408Z,27.59
2022-08-22T17:54:44.545Z,25.48
2022-08-22T17:57:38.473Z,22.81
2022-08-22T18:00:19.878Z,24.63
2022-08-22T18:02:57.923Z,27.19
2022-08-22T18:05:47.244Z,28.38
2022-08-22T18:11:43.393Z,27.06
2022-08-22T18:14:31.796Z,27.71
2022-08-22T18:17:02.313Z,25.94
2022-08-22T18:20:29.794Z,28.52
2022-08-22T18:23:21.500Z,27.40
2022-08-22T18:26:17.432Z,25.00
2022-08-22T18:29:09.733Z,28.00
2022-08-22T18:32:02.621Z,29.03
2022-08-22T18:34:43.085Z,28.62
2022-08-22T18:37:36.788Z,28.36
2022-08-22T18:40:06.588Z,29.21
2022-08-22T18:42:57.333Z,29.59
2022-08-22T18:45:45.896Z,29.66
2022-08-22T18:48:29.138Z,28.44
2022-08-22T18:51:24.476Z,28.07
2022-08-22T18:54:03.130Z,28.72
2022-08-22T18:56:35.301Z,28.18
2022-08-22T18:59:28.405Z,23.20
2022-08-22T19:02:19.760Z,26.82
2022-08-22T19:05:18.789Z,27.40
2022-08-22T19:07:59.838Z,23.77
2022-08-22T19:10:41.828Z,21.46
2022-08-22T19:13:29.915Z,20.18
2022-08-22T19:16:17.539Z,19.45
2022-08-22T19:19:04.187Z,18.92
2022-08-22T19:21:56.194Z,18.68
2022-08-22T19:24:29.005Z,18.67
2022-08-22T19:27:20.115Z,18.58
2022-08-22T19:29:50.173Z,18.48
2022-08-22T19:32:44.978Z,18.38
2022-08-22T19:35:28.292Z,18.04
2022-08-22T19:38:01.522Z,17.76
2022-08-22T19:40:46.796Z,17.62
2022-08-22T19:43:43.104Z,17.53
2022-08-22T19:46:15.972Z,17.39
2022-08-22T19:48:53.464Z,17.30
2022-08-22T19:51:24.651Z,17.21
2022-08-22T19:54:16.736Z,17.17
2022-08-22T19:57:10.100Z,17.03
2022-08-22T20:00:00.561Z,16.90
2022-08-22T20:02:53.699Z,16.80
2022-08-22T20:05:58.705Z,16.65
2022-08-22T20:08:49.092Z,16.52
2022-08-22T20:11:39.581Z,16.39
2022-08-22T20:14:39.094Z,16.25
2022-08-22T20:17:13.995Z,16.11
2022-08-22T20:20:19.546Z,16.05
2022-08-22T20:23:02.339Z,15.95
2022-08-22T20:25:45.880Z,15.88
2022-08-22T20:28:47.435Z,15.74
2022-08-22T20:31:26.367Z,15.60
2022-08-22T20:34:19.268Z,15.47
2022-08-22T20:36:59.764Z,15.33
2022-08-22T20:39:58.798Z,15.20
2022-08-22T20:42:34.084Z,15.09
2022-08-22T20:45:12.394Z,14.98
2022-08-22T20:47:49.459Z,14.88
2022-08-22T20:50:25.432Z,14.78
2022-08-22T20:53:13.931Z,14.69
2022-08-22T20:55:58.107Z,14.60
2022-08-22T20:58:37.705Z,14.50
2022-08-22T21:01:12.443Z,14.44
2022-08-22T21:03:45.153Z,14.36
2022-08-22T21:06:36.304Z,14.37
2022-08-22T21:09:37.533Z,14.40
2022-08-22T21:12:11.404Z,14.44
2022-08-22T21:14:47.656Z,14.52
2022-08-22T21:17:26.693Z,14.56
2022-08-22T21:19:59.056Z,14.58
2022-08-22T21:22:34.781Z,14.57
2022-08-22T21:25:04.755Z,14.64
2022-08-22T21:27:36.639Z,14.65
2022-08-22T21:30:09.806Z,14.65
2022-08-22T21:32:51.167Z,14.65
2022-08-22T21:35:33.684Z,14.67
2022-08-22T21:38:04.109Z,14.67
2022-08-22T21:40:37.421Z,14.64
2022-08-22T21:43:29.068Z,14.65
2022-08-22T21:45:59.537Z,14.67
2022-08-22T21:48:47.645Z,14.67
2022-08-22T21:51:33.093Z,14.65
2022-08-22T21:54:31.305Z,14.64
2022-08-22T21:57:33.522Z,14.64
2022-08-22T22:00:04.272Z,14.60
2022-08-22T22:02:44.008Z,14.58
2022-08-22T22:05:17.270Z,14.57
2022-08-22T22:07:48.889Z,14.54
2022-08-22T22:10:23.720Z,14.51
2022-08-22T22:12:56.716Z,14.50
2022-08-22T22:15:29.918Z,14.48
2022-08-22T22:18:00.995Z,14.42
2022-08-22T22:20:32.168Z,14.41
2022-08-22T22:23:02.613Z,14.38
2022-08-22T22:25:40.825Z,14.36
2022-08-22T22:28:17.275Z,14.31
2022-08-22T22:30:51.608Z,14.30
2022-08-22T22:33:28.145Z,14.29
2022-08-22T22:36:00.752Z,14.29
2022-08-22T22:38:30.930Z,14.27
2022-08-22T22:41:00.365Z,14.26
2022-08-22T22:43:30.581Z,14.24
2022-08-22T22:46:02.298Z,14.24
2022-08-22T22:48:32.279Z,14.23
2022-08-22T22:51:12.700Z,14.21
2022-08-22T22:53:43.911Z,14.20
2022-08-22T22:56:22.570Z,14.20
2022-08-22T22:59:01.182Z,14.19
2022-08-22T23:02:02.432Z,14.19
2022-08-22T23:04:34.197Z,14.16
2022-08-22T23:07:07.338Z,14.13
2022-08-22T23:09:45.082Z,14.12
2022-08-22T23:12:16.514Z,14.08
2022-08-22T23:14:47.095Z,14.03
2022-08-22T23:17:17.344Z,13.98
2022-08-22T23:19:47.703Z,13.93
2022-08-22T23:22:17.647Z,13.87
2022-08-22T23:24:47.524Z,13.86
2022-08-22T23:27:17.339Z,13.79
2022-08-22T23:29:46.839Z,13.78
2022-08-22T23:32:16.817Z,13.69
2022-08-22T23:34:49.892Z,13.66
2022-08-22T23:37:23.488Z,13.58
2022-08-22T23:39:53.644Z,13.54
2022-08-22T23:42:23.564Z,13.50
2022-08-22T23:44:53.422Z,13.47
2022-08-22T23:47:23.198Z,13.42
2022-08-22T23:49:52.452Z,13.40
2022-08-22T23:52:22.171Z,13.31
2022-08-22T23:54:55.749Z,13.28
2022-08-22T23:57:27.691Z,13.22
2022-08-22T23:59:59.867Z,13.20
